sensor_id;sensor_type;location;lat;lon;timestamp;P1;durP1;ratioP1;P2;durP2;ratioP2
19889;SDS011;10107;51.198;6.824;2023-10-09T00:07:42;20.60;;;12.75;;
19889;SDS011;10107;51.198;6.824;2023-10-09T00:11:46;15.70;;;9.52;;
19889;SDS011;10107;51.198;6.824;2023-10-09T00:15:49;19.15;;;11.98;;
19889;SDS011;10107;51.198;6.824;2023-10-09T00:19:53;23.48;;;13.20;;
19889;SDS011;10107;51.198;6.824;2023-10-09T00:23:59;21.35;;;12.63;;
19889;SDS011;10107;51.198;6.824;2023-10-09T00:28:06;24.23;;;13.27;;
19889;SDS011;10107;51.198;6.824;2023-10-09T00:32:12;21.35;;;12.27;;
19889;SDS011;10107;51.198;6.824;2023-10-09T00:36:22;22.27;;;13.43;;
19889;SDS011;10107;51.198;6.824;2023-10-09T00:40:30;20.77;;;12.80;;
19889;SDS011;10107;51.198;6.824;2023-10-09T00:44:35;23.25;;;12.52;;
19889;SDS011;10107;51.198;6.824;2023-10-09T00:48:44;21.58;;;13.23;;
19889;SDS011;10107;51.198;6.824;2023-10-09T00:52:49;23.50;;;13.32;;
19889;SDS011;10107;51.198;6.824;2023-10-09T00:57:01;24.98;;;13.15;;
19889;SDS011;10107;51.198;6.824;2023-10-09T01:01:07;21.92;;;13.38;;
19889;SDS011;10107;51.198;6.824;2023-10-09T01:05:17;22.45;;;12.73;;
19889;SDS011;10107;51.198;6.824;2023-10-09T01:09:20;22.45;;;12.70;;
19889;SDS011;10107;51.198;6.824;2023-10-09T01:13:23;22.38;;;12.00;;
19889;SDS011;10107;51.198;6.824;2023-10-09T01:17:39;21.88;;;12.45;;
19889;SDS011;10107;51.198;6.824;2023-10-09T01:21:47;22.13;;;12.10;;
19889;SDS011;10107;51.198;6.824;2023-10-09T01:25:51;22.60;;;13.25;;
19889;SDS011;10107;51.198;6.824;2023-10-09T01:29:53;19.73;;;11.60;;
19889;SDS011;10107;51.198;6.824;2023-10-09T01:33:55;24.45;;;12.60;;
19889;SDS011;10107;51.198;6.824;2023-10-09T01:37:59;18.45;;;11.27;;
19889;SDS011;10107;51.198;6.824;2023-10-09T01:42:03;22.80;;;12.07;;
19889;SDS011;10107;51.198;6.824;2023-10-09T01:46:06;21.83;;;12.25;;
19889;SDS011;10107;51.198;6.824;2023-10-09T01:50:10;20.55;;;11.85;;
19889;SDS011;10107;51.198;6.824;2023-10-09T01:54:20;20.65;;;12.95;;
19889;SDS011;10107;51.198;6.824;2023-10-09T01:58:38;19.02;;;11.35;;
19889;SDS011;10107;51.198;6.824;2023-10-09T02:06:45;18.77;;;10.57;;
19889;SDS011;10107;51.198;6.824;2023-10-09T02:10:52;17.10;;;10.68;;
19889;SDS011;10107;51.198;6.824;2023-10-09T02:14:57;23.83;;;12.77;;
19889;SDS011;10107;51.198;6.824;2023-10-09T02:19:07;18.83;;;11.38;;
19889;SDS011;10107;51.198;6.824;2023-10-09T02:23:29;18.08;;;11.73;;
19889;SDS011;10107;51.198;6.824;2023-10-09T02:27:39;18.45;;;11.15;;
19889;SDS011;10107;51.198;6.824;2023-10-09T02:36:01;17.55;;;10.85;;
19889;SDS011;10107;51.198;6.824;2023-10-09T02:40:06;17.90;;;10.65;;
19889;SDS011;10107;51.198;6.824;2023-10-09T02:44:09;16.95;;;10.45;;
19889;SDS011;10107;51.198;6.824;2023-10-09T02:48:13;17.05;;;10.40;;
19889;SDS011;10107;51.198;6.824;2023-10-09T02:52:15;17.88;;;10.60;;
19889;SDS011;10107;51.198;6.824;2023-10-09T02:56:24;15.38;;;10.00;;
19889;SDS011;10107;51.198;6.824;2023-10-09T03:00:37;17.42;;;10.80;;
19889;SDS011;10107;51.198;6.824;2023-10-09T03:04:41;18.13;;;10.80;;
19889;SDS011;10107;51.198;6.824;2023-10-09T03:08:42;15.67;;;10.53;;
19889;SDS011;10107;51.198;6.824;2023-10-09T03:12:47;17.30;;;10.30;;
19889;SDS011;10107;51.198;6.824;2023-10-09T03:16:51;17.10;;;10.45;;
19889;SDS011;10107;51.198;6.824;2023-10-09T03:20:54;16.70;;;9.90;;
19889;SDS011;10107;51.198;6.824;2023-10-09T03:28:59;15.93;;;9.88;;
19889;SDS011;10107;51.198;6.824;2023-10-09T03:33:02;15.40;;;10.32;;
19889;SDS011;10107;51.198;6.824;2023-10-09T03:37:05;17.00;;;9.15;;
19889;SDS011;10107;51.198;6.824;2023-10-09T03:41:21;15.52;;;10.40;;
19889;SDS011;10107;51.198;6.824;2023-10-09T03:45:24;17.15;;;10.57;;
19889;SDS011;10107;51.198;6.824;2023-10-09T03:49:27;14.90;;;9.88;;
19889;SDS011;10107;51.198;6.824;2023-10-09T03:53:31;14.93;;;9.07;;
19889;SDS011;10107;51.198;6.824;2023-10-09T03:57:33;16.13;;;9.35;;
19889;SDS011;10107;51.198;6.824;2023-10-09T04:01:34;16.02;;;9.77;;
19889;SDS011;10107;51.198;6.824;2023-10-09T04:05:39;16.23;;;10.00;;
19889;SDS011;10107;51.198;6.824;2023-10-09T04:13:48;16.90;;;10.15;;
19889;SDS011;10107;51.198;6.824;2023-10-09T04:17:52;14.18;;;9.15;;
19889;SDS011;10107;51.198;6.824;2023-10-09T04:21:56;13.70;;;8.98;;
19889;SDS011;10107;51.198;6.824;2023-10-09T04:26:00;14.82;;;9.00;;
19889;SDS011;10107;51.198;6.824;2023-10-09T04:30:11;14.40;;;8.48;;
19889;SDS011;10107;51.198;6.824;2023-10-09T04:34:15;12.43;;;8.50;;
19889;SDS011;10107;51.198;6.824;2023-10-09T04:38:23;13.27;;;8.20;;
19889;SDS011;10107;51.198;6.824;2023-10-09T04:42:28;13.18;;;8.75;;
19889;SDS011;10107;51.198;6.824;2023-10-09T04:46:39;14.43;;;9.10;;
19889;SDS011;10107;51.198;6.824;2023-10-09T04:50:44;13.40;;;9.20;;
19889;SDS011;10107;51.198;6.824;2023-10-09T04:55:10;13.10;;;8.20;;
19889;SDS011;10107;51.198;6.824;2023-10-09T04:59:20;12.15;;;7.78;;
19889;SDS011;10107;51.198;6.824;2023-10-09T05:03:25;14.38;;;9.30;;
19889;SDS011;10107;51.198;6.824;2023-10-09T05:07:28;12.32;;;8.55;;
19889;SDS011;10107;51.198;6.824;2023-10-09T05:11:54;13.68;;;8.73;;
19889;SDS011;10107;51.198;6.824;2023-10-09T05:16:17;10.70;;;7.63;;
19889;SDS011;10107;51.198;6.824;2023-10-09T05:20:25;13.27;;;9.13;;
19889;SDS011;10107;51.198;6.824;2023-10-09T05:25:08;12.77;;;8.55;;
19889;SDS011;10107;51.198;6.824;2023-10-09T05:29:30;11.27;;;8.30;;
19889;SDS011;10107;51.198;6.824;2023-10-09T05:33:34;11.35;;;8.02;;
19889;SDS011;10107;51.198;6.824;2023-10-09T05:37:38;12.23;;;7.55;;
19889;SDS011;10107;51.198;6.824;2023-10-09T05:41:45;12.35;;;7.80;;
19889;SDS011;10107;51.198;6.824;2023-10-09T05:45:52;12.10;;;8.18;;
19889;SDS011;10107;51.198;6.824;2023-10-09T05:50:08;11.35;;;8.02;;
19889;SDS011;10107;51.198;6.824;2023-10-09T05:54:23;13.07;;;7.45;;
19889;SDS011;10107;51.198;6.824;2023-10-09T05:58:40;11.68;;;7.43;;
19889;SDS011;10107;51.198;6.824;2023-10-09T06:02:58;10.38;;;7.20;;
19889;SDS011;10107;51.198;6.824;2023-10-09T06:07:24;12.77;;;8.32;;
19889;SDS011;10107;51.198;6.824;2023-10-09T06:11:46;15.18;;;9.90;;
19889;SDS011;10107;51.198;6.824;2023-10-09T06:15:56;14.02;;;8.38;;
19889;SDS011;10107;51.198;6.824;2023-10-09T06:20:16;13.57;;;8.88;;
19889;SDS011;10107;51.198;6.824;2023-10-09T06:24:35;11.45;;;8.10;;
19889;SDS011;10107;51.198;6.824;2023-10-09T06:28:41;12.98;;;7.65;;
19889;SDS011;10107;51.198;6.824;2023-10-09T06:32:51;11.27;;;8.35;;
19889;SDS011;10107;51.198;6.824;2023-10-09T06:36:58;10.85;;;7.35;;
19889;SDS011;10107;51.198;6.824;2023-10-09T06:41:06;11.70;;;7.57;;
19889;SDS011;10107;51.198;6.824;2023-10-09T06:45:35;10.40;;;7.18;;
19889;SDS011;10107;51.198;6.824;2023-10-09T06:49:46;12.95;;;7.53;;
19889;SDS011;10107;51.198;6.824;2023-10-09T06:54:08;14.10;;;7.90;;
19889;SDS011;10107;51.198;6.824;2023-10-09T06:58:15;13.15;;;7.78;;
19889;SDS011;10107;51.198;6.824;2023-10-09T07:02:22;10.93;;;7.15;;
19889;SDS011;10107;51.198;6.824;2023-10-09T07:06:28;9.38;;;6.47;;
19889;SDS011;10107;51.198;6.824;2023-10-09T07:10:50;9.23;;;6.63;;
19889;SDS011;10107;51.198;6.824;2023-10-09T07:15:11;10.80;;;6.72;;
19889;SDS011;10107;51.198;6.824;2023-10-09T07:19:31;8.63;;;5.65;;
19889;SDS011;10107;51.198;6.824;2023-10-09T07:23:57;10.75;;;6.05;;
19889;SDS011;10107;51.198;6.824;2023-10-09T07:28:14;8.38;;;5.10;;
19889;SDS011;10107;51.198;6.824;2023-10-09T07:32:36;10.13;;;5.93;;
19889;SDS011;10107;51.198;6.824;2023-10-09T07:36:43;11.00;;;6.32;;
19889;SDS011;10107;51.198;6.824;2023-10-09T07:40:51;11.13;;;6.15;;
19889;SDS011;10107;51.198;6.824;2023-10-09T07:45:00;10.30;;;6.03;;
19889;SDS011;10107;51.198;6.824;2023-10-09T07:49:12;9.98;;;6.20;;
19889;SDS011;10107;51.198;6.824;2023-10-09T07:53:14;7.85;;;5.32;;
19889;SDS011;10107;51.198;6.824;2023-10-09T07:57:20;13.55;;;7.57;;
19889;SDS011;10107;51.198;6.824;2023-10-09T08:01:29;10.98;;;7.32;;
19889;SDS011;10107;51.198;6.824;2023-10-09T08:05:36;10.30;;;6.70;;
19889;SDS011;10107;51.198;6.824;2023-10-09T08:09:44;9.90;;;6.50;;
19889;SDS011;10107;51.198;6.824;2023-10-09T08:18:40;12.82;;;7.72;;
19889;SDS011;10107;51.198;6.824;2023-10-09T08:22:45;16.67;;;9.63;;
19889;SDS011;10107;51.198;6.824;2023-10-09T08:26:52;10.35;;;7.57;;
19889;SDS011;10107;51.198;6.824;2023-10-09T08:31:15;10.07;;;6.25;;
19889;SDS011;10107;51.198;6.824;2023-10-09T08:35:35;9.25;;;5.32;;
19889;SDS011;10107;51.198;6.824;2023-10-09T08:39:48;6.80;;;4.85;;
19889;SDS011;10107;51.198;6.824;2023-10-09T08:43:50;5.70;;;3.75;;
19889;SDS011;10107;51.198;6.824;2023-10-09T08:47:54;8.23;;;4.83;;
19889;SDS011;10107;51.198;6.824;2023-10-09T08:51:56;6.63;;;4.88;;
19889;SDS011;10107;51.198;6.824;2023-10-09T08:56:03;9.15;;;5.15;;
19889;SDS011;10107;51.198;6.824;2023-10-09T09:00:06;9.88;;;5.70;;
19889;SDS011;10107;51.198;6.824;2023-10-09T09:04:30;10.07;;;6.35;;
19889;SDS011;10107;51.198;6.824;2023-10-09T09:08:40;14.75;;;7.65;;
19889;SDS011;10107;51.198;6.824;2023-10-09T09:12:45;14.55;;;8.35;;
19889;SDS011;10107;51.198;6.824;2023-10-09T09:16:46;13.60;;;8.10;;
19889;SDS011;10107;51.198;6.824;2023-10-09T09:20:51;14.43;;;7.80;;
19889;SDS011;10107;51.198;6.824;2023-10-09T09:24:57;13.75;;;7.78;;
19889;SDS011;10107;51.198;6.824;2023-10-09T09:29:04;10.80;;;7.18;;
19889;SDS011;10107;51.198;6.824;2023-10-09T09:33:16;13.17;;;7.80;;
19889;SDS011;10107;51.198;6.824;2023-10-09T09:37:22;11.70;;;6.40;;
19889;SDS011;10107;51.198;6.824;2023-10-09T09:41:28;8.70;;;5.70;;
19889;SDS011;10107;51.198;6.824;2023-10-09T09:45:34;10.10;;;6.30;;
19889;SDS011;10107;51.198;6.824;2023-10-09T09:49:36;9.93;;;5.82;;
19889;SDS011;10107;51.198;6.824;2023-10-09T09:53:41;11.13;;;6.63;;
19889;SDS011;10107;51.198;6.824;2023-10-09T09:57:47;10.68;;;6.72;;
19889;SDS011;10107;51.198;6.824;2023-10-09T10:01:51;10.63;;;5.80;;
19889;SDS011;10107;51.198;6.824;2023-10-09T10:05:58;10.63;;;6.25;;
19889;SDS011;10107;51.198;6.824;2023-10-09T10:14:52;9.70;;;5.90;;
19889;SDS011;10107;51.198;6.824;2023-10-09T10:18:57;8.43;;;4.68;;
19889;SDS011;10107;51.198;6.824;2023-10-09T10:23:21;9.07;;;4.95;;
19889;SDS011;10107;51.198;6.824;2023-10-09T10:27:27;8.43;;;4.90;;
19889;SDS011;10107;51.198;6.824;2023-10-09T10:35:56;8.90;;;5.30;;
19889;SDS011;10107;51.198;6.824;2023-10-09T10:39:58;8.75;;;5.00;;
19889;SDS011;10107;51.198;6.824;2023-10-09T10:44:14;9.98;;;4.85;;
19889;SDS011;10107;51.198;6.824;2023-10-09T10:48:33;8.43;;;5.55;;
19889;SDS011;10107;51.198;6.824;2023-10-09T10:52:38;9.30;;;5.40;;
19889;SDS011;10107;51.198;6.824;2023-10-09T10:56:43;7.15;;;4.80;;
19889;SDS011;10107;51.198;6.824;2023-10-09T11:00:50;9.30;;;6.55;;
19889;SDS011;10107;51.198;6.824;2023-10-09T11:05:11;9.38;;;5.85;;
19889;SDS011;10107;51.198;6.824;2023-10-09T11:09:23;12.02;;;6.20;;
19889;SDS011;10107;51.198;6.824;2023-10-09T11:13:35;6.82;;;5.10;;
19889;SDS011;10107;51.198;6.824;2023-10-09T11:17:58;8.05;;;5.03;;
19889;SDS011;10107;51.198;6.824;2023-10-09T11:22:05;14.65;;;7.05;;
19889;SDS011;10107;51.198;6.824;2023-10-09T11:26:25;11.35;;;6.10;;
19889;SDS011;10107;51.198;6.824;2023-10-09T11:30:30;10.60;;;5.88;;
19889;SDS011;10107;51.198;6.824;2023-10-09T11:34:36;10.95;;;6.57;;
19889;SDS011;10107;51.198;6.824;2023-10-09T11:38:37;11.30;;;5.90;;
19889;SDS011;10107;51.198;6.824;2023-10-09T11:42:43;10.70;;;6.68;;
19889;SDS011;10107;51.198;6.824;2023-10-09T11:46:56;13.77;;;6.85;;
19889;SDS011;10107;51.198;6.824;2023-10-09T11:50:59;11.85;;;6.47;;
19889;SDS011;10107;51.198;6.824;2023-10-09T11:55:15;9.77;;;6.50;;
19889;SDS011;10107;51.198;6.824;2023-10-09T11:59:17;9.32;;;5.85;;
19889;SDS011;10107;51.198;6.824;2023-10-09T12:03:19;8.23;;;5.65;;
19889;SDS011;10107;51.198;6.824;2023-10-09T12:07:25;8.68;;;6.07;;
19889;SDS011;10107;51.198;6.824;2023-10-09T12:11:28;9.73;;;5.90;;
19889;SDS011;10107;51.198;6.824;2023-10-09T12:15:29;9.15;;;5.50;;
19889;SDS011;10107;51.198;6.824;2023-10-09T12:19:37;9.00;;;6.30;;
19889;SDS011;10107;51.198;6.824;2023-10-09T12:23:41;10.38;;;6.30;;
19889;SDS011;10107;51.198;6.824;2023-10-09T12:27:45;11.60;;;6.43;;
19889;SDS011;10107;51.198;6.824;2023-10-09T12:31:46;10.90;;;6.25;;
19889;SDS011;10107;51.198;6.824;2023-10-09T12:35:48;8.82;;;5.07;;
19889;SDS011;10107;51.198;6.824;2023-10-09T12:39:51;7.38;;;5.00;;
19889;SDS011;10107;51.198;6.824;2023-10-09T12:43:56;7.97;;;5.38;;
19889;SDS011;10107;51.198;6.824;2023-10-09T12:47:59;7.55;;;5.10;;
19889;SDS011;10107;51.198;6.824;2023-10-09T12:52:03;9.95;;;5.68;;
19889;SDS011;10107;51.198;6.824;2023-10-09T12:56:06;9.23;;;5.53;;
19889;SDS011;10107;51.198;6.824;2023-10-09T13:00:08;9.65;;;6.00;;
19889;SDS011;10107;51.198;6.824;2023-10-09T13:04:12;9.07;;;5.68;;
19889;SDS011;10107;51.198;6.824;2023-10-09T13:08:16;9.43;;;5.55;;
19889;SDS011;10107;51.198;6.824;2023-10-09T13:12:21;11.13;;;6.05;;
19889;SDS011;10107;51.198;6.824;2023-10-09T13:16:23;7.47;;;5.18;;
19889;SDS011;10107;51.198;6.824;2023-10-09T13:20:24;9.45;;;5.45;;
19889;SDS011;10107;51.198;6.824;2023-10-09T13:24:27;11.27;;;6.82;;
19889;SDS011;10107;51.198;6.824;2023-10-09T13:28:31;8.73;;;5.25;;
19889;SDS011;10107;51.198;6.824;2023-10-09T13:32:33;7.43;;;5.07;;
19889;SDS011;10107;51.198;6.824;2023-10-09T13:36:36;7.22;;;4.68;;
19889;SDS011;10107;51.198;6.824;2023-10-09T13:40:37;12.13;;;6.38;;
19889;SDS011;10107;51.198;6.824;2023-10-09T13:44:40;9.27;;;6.05;;
19889;SDS011;10107;51.198;6.824;2023-10-09T13:48:42;9.77;;;5.38;;
19889;SDS011;10107;51.198;6.824;2023-10-09T13:52:45;11.73;;;5.63;;
19889;SDS011;10107;51.198;6.824;2023-10-09T13:56:47;10.55;;;6.78;;
19889;SDS011;10107;51.198;6.824;2023-10-09T14:00:54;13.18;;;6.75;;
19889;SDS011;10107;51.198;6.824;2023-10-09T14:04:56;9.95;;;5.75;;
19889;SDS011;10107;51.198;6.824;2023-10-09T14:09:01;9.25;;;5.57;;
19889;SDS011;10107;51.198;6.824;2023-10-09T14:13:05;8.82;;;5.55;;
19889;SDS011;10107;51.198;6.824;2023-10-09T14:17:13;9.80;;;6.07;;
19889;SDS011;10107;51.198;6.824;2023-10-09T14:21:19;7.80;;;4.75;;
19889;SDS011;10107;51.198;6.824;2023-10-09T14:25:21;9.82;;;5.40;;
19889;SDS011;10107;51.198;6.824;2023-10-09T14:29:23;9.82;;;6.50;;
19889;SDS011;10107;51.198;6.824;2023-10-09T14:33:28;8.75;;;6.05;;
19889;SDS011;10107;51.198;6.824;2023-10-09T14:37:36;8.57;;;6.05;;
19889;SDS011;10107;51.198;6.824;2023-10-09T14:41:39;13.75;;;7.07;;
19889;SDS011;10107;51.198;6.824;2023-10-09T14:45:41;10.00;;;6.38;;
19889;SDS011;10107;51.198;6.824;2023-10-09T14:49:46;11.65;;;7.10;;
19889;SDS011;10107;51.198;6.824;2023-10-09T14:53:48;10.57;;;6.30;;
19889;SDS011;10107;51.198;6.824;2023-10-09T14:57:53;12.60;;;7.70;;
19889;SDS011;10107;51.198;6.824;2023-10-09T15:01:55;10.23;;;6.75;;
19889;SDS011;10107;51.198;6.824;2023-10-09T15:05:59;11.43;;;6.43;;
19889;SDS011;10107;51.198;6.824;2023-10-09T15:10:01;11.15;;;6.90;;
19889;SDS011;10107;51.198;6.824;2023-10-09T15:14:06;10.52;;;6.30;;
19889;SDS011;10107;51.198;6.824;2023-10-09T15:18:08;9.52;;;6.45;;
19889;SDS011;10107;51.198;6.824;2023-10-09T15:22:14;9.63;;;5.63;;
19889;SDS011;10107;51.198;6.824;2023-10-09T15:26:16;9.52;;;5.78;;
19889;SDS011;10107;51.198;6.824;2023-10-09T15:30:18;9.73;;;6.05;;
19889;SDS011;10107;51.198;6.824;2023-10-09T15:34:19;12.18;;;6.82;;
19889;SDS011;10107;51.198;6.824;2023-10-09T15:38:23;10.88;;;6.00;;
19889;SDS011;10107;51.198;6.824;2023-10-09T15:46:27;9.52;;;5.90;;
19889;SDS011;10107;51.198;6.824;2023-10-09T15:50:33;11.80;;;6.70;;
19889;SDS011;10107;51.198;6.824;2023-10-09T15:54:36;9.25;;;6.22;;
19889;SDS011;10107;51.198;6.824;2023-10-09T15:58:38;9.95;;;6.60;;
19889;SDS011;10107;51.198;6.824;2023-10-09T16:02:43;8.82;;;5.88;;
19889;SDS011;10107;51.198;6.824;2023-10-09T16:06:45;9.75;;;6.82;;
19889;SDS011;10107;51.198;6.824;2023-10-09T16:10:48;9.25;;;6.18;;
19889;SDS011;10107;51.198;6.824;2023-10-09T16:14:50;11.83;;;6.73;;
19889;SDS011;10107;51.198;6.824;2023-10-09T16:18:54;9.73;;;5.65;;
19889;SDS011;10107;51.198;6.824;2023-10-09T16:22:56;10.27;;;5.93;;
19889;SDS011;10107;51.198;6.824;2023-10-09T16:27:00;8.70;;;6.10;;
19889;SDS011;10107;51.198;6.824;2023-10-09T16:31:04;9.68;;;6.22;;
19889;SDS011;10107;51.198;6.824;2023-10-09T16:35:12;9.45;;;6.30;;
19889;SDS011;10107;51.198;6.824;2023-10-09T16:39:14;8.57;;;5.90;;
19889;SDS011;10107;51.198;6.824;2023-10-09T16:43:23;8.93;;;6.75;;
19889;SDS011;10107;51.198;6.824;2023-10-09T16:47:27;9.55;;;6.22;;
19889;SDS011;10107;51.198;6.824;2023-10-09T16:51:30;10.63;;;6.97;;
19889;SDS011;10107;51.198;6.824;2023-10-09T16:55:32;9.30;;;6.35;;
19889;SDS011;10107;51.198;6.824;2023-10-09T16:59:35;10.35;;;6.35;;
19889;SDS011;10107;51.198;6.824;2023-10-09T17:03:37;11.52;;;6.80;;
19889;SDS011;10107;51.198;6.824;2023-10-09T17:07:42;10.60;;;6.85;;
19889;SDS011;10107;51.198;6.824;2023-10-09T17:11:45;9.47;;;6.37;;
19889;SDS011;10107;51.198;6.824;2023-10-09T17:15:53;8.85;;;6.38;;
19889;SDS011;10107;51.198;6.824;2023-10-09T17:19:55;8.52;;;6.55;;
19889;SDS011;10107;51.198;6.824;2023-10-09T17:23:58;10.40;;;6.87;;
19889;SDS011;10107;51.198;6.824;2023-10-09T17:27:59;8.38;;;5.60;;
19889;SDS011;10107;51.198;6.824;2023-10-09T17:32:02;8.70;;;6.40;;
19889;SDS011;10107;51.198;6.824;2023-10-09T17:36:05;9.32;;;5.95;;
19889;SDS011;10107;51.198;6.824;2023-10-09T17:40:08;6.25;;;4.45;;
19889;SDS011;10107;51.198;6.824;2023-10-09T17:44:10;11.10;;;6.85;;
19889;SDS011;10107;51.198;6.824;2023-10-09T17:48:13;9.68;;;6.47;;
19889;SDS011;10107;51.198;6.824;2023-10-09T17:52:17;8.32;;;6.10;;
19889;SDS011;10107;51.198;6.824;2023-10-09T17:56:19;10.52;;;7.65;;
19889;SDS011;10107;51.198;6.824;2023-10-09T18:00:25;10.88;;;7.20;;
19889;SDS011;10107;51.198;6.824;2023-10-09T18:04:28;7.50;;;5.60;;
19889;SDS011;10107;51.198;6.824;2023-10-09T18:08:35;7.85;;;5.95;;
19889;SDS011;10107;51.198;6.824;2023-10-09T18:12:36;11.10;;;6.10;;
19889;SDS011;10107;51.198;6.824;2023-10-09T18:16:38;8.15;;;5.65;;
19889;SDS011;10107;51.198;6.824;2023-10-09T18:20:43;7.70;;;5.80;;
19889;SDS011;10107;51.198;6.824;2023-10-09T18:24:44;9.23;;;6.33;;
19889;SDS011;10107;51.198;6.824;2023-10-09T18:28:46;8.32;;;6.10;;
19889;SDS011;10107;51.198;6.824;2023-10-09T18:32:48;9.30;;;6.45;;
19889;SDS011;10107;51.198;6.824;2023-10-09T18:36:51;10.63;;;6.90;;
19889;SDS011;10107;51.198;6.824;2023-10-09T18:40:53;9.63;;;6.97;;
19889;SDS011;10107;51.198;6.824;2023-10-09T18:44:56;10.20;;;7.07;;
19889;SDS011;10107;51.198;6.824;2023-10-09T18:48:57;9.65;;;6.07;;
19889;SDS011;10107;51.198;6.824;2023-10-09T18:53:02;12.32;;;7.55;;
19889;SDS011;10107;51.198;6.824;2023-10-09T19:01:07;12.82;;;8.18;;
19889;SDS011;10107;51.198;6.824;2023-10-09T19:05:13;8.95;;;6.05;;
19889;SDS011;10107;51.198;6.824;2023-10-09T19:09:16;11.88;;;7.03;;
19889;SDS011;10107;51.198;6.824;2023-10-09T19:13:22;9.73;;;7.03;;
19889;SDS011;10107;51.198;6.824;2023-10-09T19:17:24;11.70;;;7.32;;
19889;SDS011;10107;51.198;6.824;2023-10-09T19:21:26;11.52;;;7.78;;
19889;SDS011;10107;51.198;6.824;2023-10-09T19:25:31;11.23;;;8.05;;
19889;SDS011;10107;51.198;6.824;2023-10-09T19:29:33;9.40;;;6.70;;
19889;SDS011;10107;51.198;6.824;2023-10-09T19:33:34;9.77;;;7.07;;
19889;SDS011;10107;51.198;6.824;2023-10-09T19:37:38;8.45;;;6.28;;
19889;SDS011;10107;51.198;6.824;2023-10-09T19:41:43;11.52;;;8.38;;
19889;SDS011;10107;51.198;6.824;2023-10-09T19:45:45;11.30;;;8.07;;
19889;SDS011;10107;51.198;6.824;2023-10-09T19:49:46;12.50;;;7.28;;
19889;SDS011;10107;51.198;6.824;2023-10-09T19:53:49;11.98;;;7.93;;
19889;SDS011;10107;51.198;6.824;2023-10-09T19:57:54;8.68;;;5.40;;
19889;SDS011;10107;51.198;6.824;2023-10-09T20:01:56;12.93;;;8.05;;
19889;SDS011;10107;51.198;6.824;2023-10-09T20:05:59;10.02;;;7.57;;
19889;SDS011;10107;51.198;6.824;2023-10-09T20:10:04;11.48;;;7.93;;
19889;SDS011;10107;51.198;6.824;2023-10-09T20:14:08;14.23;;;9.70;;
19889;SDS011;10107;51.198;6.824;2023-10-09T20:18:09;12.47;;;8.50;;
19889;SDS011;10107;51.198;6.824;2023-10-09T20:22:11;14.93;;;8.80;;
19889;SDS011;10107;51.198;6.824;2023-10-09T20:26:13;11.85;;;8.15;;
19889;SDS011;10107;51.198;6.824;2023-10-09T20:30:16;11.07;;;8.38;;
19889;SDS011;10107;51.198;6.824;2023-10-09T20:34:18;11.67;;;8.30;;
19889;SDS011;10107;51.198;6.824;2023-10-09T20:38:20;15.25;;;10.40;;
19889;SDS011;10107;51.198;6.824;2023-10-09T20:42:22;12.77;;;8.45;;
19889;SDS011;10107;51.198;6.824;2023-10-09T20:46:26;13.18;;;9.07;;
19889;SDS011;10107;51.198;6.824;2023-10-09T20:50:29;12.05;;;7.40;;
19889;SDS011;10107;51.198;6.824;2023-10-09T20:54:31;11.15;;;8.27;;
19889;SDS011;10107;51.198;6.824;2023-10-09T20:58:32;10.70;;;7.78;;
19889;SDS011;10107;51.198;6.824;2023-10-09T21:02:35;17.35;;;10.38;;
19889;SDS011;10107;51.198;6.824;2023-10-09T21:06:37;15.53;;;10.67;;
19889;SDS011;10107;51.198;6.824;2023-10-09T21:10:40;13.43;;;9.15;;
19889;SDS011;10107;51.198;6.824;2023-10-09T21:18:46;14.27;;;9.85;;
19889;SDS011;10107;51.198;6.824;2023-10-09T21:22:49;14.10;;;10.07;;
19889;SDS011;10107;51.198;6.824;2023-10-09T21:26:54;12.85;;;9.13;;
19889;SDS011;10107;51.198;6.824;2023-10-09T21:30:55;13.88;;;9.63;;
19889;SDS011;10107;51.198;6.824;2023-10-09T21:34:59;14.20;;;9.88;;
19889;SDS011;10107;51.198;6.824;2023-10-09T21:39:01;18.13;;;11.13;;
19889;SDS011;10107;51.198;6.824;2023-10-09T21:43:03;16.02;;;10.52;;
19889;SDS011;10107;51.198;6.824;2023-10-09T21:47:07;16.80;;;10.73;;
19889;SDS011;10107;51.198;6.824;2023-10-09T21:51:10;17.27;;;10.27;;
19889;SDS011;10107;51.198;6.824;2023-10-09T21:55:16;16.45;;;11.55;;
19889;SDS011;10107;51.198;6.824;2023-10-09T21:59:18;16.85;;;11.57;;
19889;SDS011;10107;51.198;6.824;2023-10-09T22:03:19;15.15;;;10.82;;
19889;SDS011;10107;51.198;6.824;2023-10-09T22:07:22;17.77;;;11.73;;
19889;SDS011;10107;51.198;6.824;2023-10-09T22:11:26;16.55;;;11.93;;
19889;SDS011;10107;51.198;6.824;2023-10-09T22:15:28;17.08;;;12.43;;
19889;SDS011;10107;51.198;6.824;2023-10-09T22:19:30;22.48;;;13.80;;
19889;SDS011;10107;51.198;6.824;2023-10-09T22:23:37;18.30;;;12.63;;
19889;SDS011;10107;51.198;6.824;2023-10-09T22:27:45;17.92;;;12.25;;
19889;SDS011;10107;51.198;6.824;2023-10-09T22:31:51;17.15;;;12.13;;
19889;SDS011;10107;51.198;6.824;2023-10-09T22:35:54;19.10;;;12.38;;
19889;SDS011;10107;51.198;6.824;2023-10-09T22:40:02;21.30;;;13.63;;
19889;SDS011;10107;51.198;6.824;2023-10-09T22:44:20;21.20;;;14.38;;
19889;SDS011;10107;51.198;6.824;2023-10-09T22:48:22;19.77;;;14.27;;
19889;SDS011;10107;51.198;6.824;2023-10-09T22:52:27;20.58;;;13.90;;
19889;SDS011;10107;51.198;6.824;2023-10-09T22:56:36;20.50;;;13.93;;
19889;SDS011;10107;51.198;6.824;2023-10-09T23:00:37;14.68;;;9.52;;
19889;SDS011;10107;51.198;6.824;2023-10-09T23:04:48;20.35;;;14.07;;
19889;SDS011;10107;51.198;6.824;2023-10-09T23:08:55;21.33;;;15.25;;
19889;SDS011;10107;51.198;6.824;2023-10-09T23:12:59;22.73;;;14.97;;
19889;SDS011;10107;51.198;6.824;2023-10-09T23:17:14;19.08;;;13.95;;
19889;SDS011;10107;51.198;6.824;2023-10-09T23:21:19;21.05;;;14.02;;
19889;SDS011;10107;51.198;6.824;2023-10-09T23:25:23;22.67;;;15.13;;
19889;SDS011;10107;51.198;6.824;2023-10-09T23:29:34;22.33;;;14.13;;
19889;SDS011;10107;51.198;6.824;2023-10-09T23:33:36;15.67;;;10.13;;
19889;SDS011;10107;51.198;6.824;2023-10-09T23:37:38;21.40;;;14.40;;
19889;SDS011;10107;51.198;6.824;2023-10-09T23:41:43;21.00;;;14.57;;
19889;SDS011;10107;51.198;6.824;2023-10-09T23:45:59;22.45;;;14.52;;
19889;SDS011;10107;51.198;6.824;2023-10-09T23:50:02;21.70;;;14.35;;
19889;SDS011;10107;51.198;6.824;2023-10-09T23:54:04;23.75;;;14.98;;
19889;SDS011;10107;51.198;6.824;2023-10-09T23:58:10;22.25;;;15.27;;
